createdAt,value
2018-03-02T00:02:18.508Z,53.40
2018-03-02T00:04:52.344Z,53.60
2018-03-02T00:07:25.985Z,53.50
2018-03-02T00:09:59.558Z,53.50
2018-03-02T00:12:34.012Z,54.30
2018-03-02T00:15:08.028Z,53.80
2018-03-02T00:17:42.477Z,54.60
2018-03-02T00:20:16.495Z,54.00
2018-03-02T00:22:50.102Z,54.00
2018-03-02T00:25:23.757Z,54.00
2018-03-02T00:27:57.597Z,54.10
2018-03-02T00:30:31.928Z,54.00
2018-03-02T00:33:06.053Z,54.00
2018-03-02T00:35:40.336Z,54.00
2018-03-02T00:38:14.609Z,54.10
2018-03-02T00:40:48.818Z,54.10
2018-03-02T00:43:23.001Z,54.20
2018-03-02T00:45:57.285Z,54.40
2018-03-02T00:48:31.281Z,52.40
2018-03-02T00:51:05.497Z,54.30
2018-03-02T00:53:39.400Z,54.60
2018-03-02T00:56:13.473Z,54.70
2018-03-02T00:58:47.703Z,54.70
2018-03-02T01:01:21.968Z,54.60
2018-03-02T01:03:56.681Z,54.90
2018-03-02T01:06:30.379Z,55.10
2018-03-02T01:09:04.072Z,55.00
2018-03-02T01:14:13.367Z,54.80
2018-03-02T01:16:46.972Z,54.90
2018-03-02T01:19:20.722Z,54.90
2018-03-02T01:21:54.556Z,55.10
2018-03-02T01:24:29.196Z,54.90
2018-03-02T01:27:03.303Z,55.00
2018-03-02T01:29:36.959Z,55.10
2018-03-02T01:32:11.591Z,55.00
2018-03-02T01:34:45.665Z,54.90
2018-03-02T01:37:19.302Z,55.10
2018-03-02T01:39:53.045Z,54.90
2018-03-02T01:42:27.210Z,55.10
2018-03-02T01:45:01.469Z,55.20
2018-03-02T01:47:35.474Z,55.00
2018-03-02T01:50:09.483Z,55.30
2018-03-02T01:52:43.723Z,55.70
2018-03-02T01:55:18.126Z,55.90
2018-03-02T01:57:52.175Z,55.80
2018-03-02T02:00:27.061Z,56.30
2018-03-02T02:03:01.548Z,56.60
2018-03-02T02:05:35.950Z,56.10
2018-03-02T02:08:10.707Z,56.30
2018-03-02T02:10:45.201Z,56.90
2018-03-02T02:13:19.428Z,56.60
2018-03-02T02:15:53.501Z,56.40
2018-03-02T02:18:28.159Z,56.80
2018-03-02T02:21:02.100Z,56.50
2018-03-02T02:23:35.894Z,56.40
2018-03-02T02:26:09.600Z,56.50
2018-03-02T02:28:43.347Z,56.60
2018-03-02T02:31:17.757Z,57.30
2018-03-02T02:33:51.648Z,56.60
2018-03-02T02:36:25.395Z,56.70
2018-03-02T02:38:59.326Z,56.80
2018-03-02T02:41:33.910Z,57.20
2018-03-02T02:44:08.511Z,56.70
2018-03-02T02:46:42.898Z,56.80
2018-03-02T02:49:16.824Z,56.90
2018-03-02T02:51:51.365Z,57.70
2018-03-02T02:54:26.619Z,57.90
2018-03-02T02:57:00.667Z,57.40
2018-03-02T02:59:34.816Z,57.50
2018-03-02T03:02:09.711Z,58.00
2018-03-02T03:04:44.077Z,57.40
2018-03-02T03:07:18.367Z,57.50
2018-03-02T03:09:52.590Z,57.50
2018-03-02T03:12:26.668Z,57.70
2018-03-02T03:15:00.664Z,57.60
2018-03-02T03:17:35.786Z,58.20
2018-03-02T03:20:11.015Z,58.00
2018-03-02T03:22:45.377Z,58.20
2018-03-02T03:25:19.677Z,58.00
2018-03-02T03:27:53.598Z,58.10
2018-03-02T03:30:28.200Z,58.80
2018-03-02T03:33:02.153Z,58.20
2018-03-02T03:35:36.539Z,58.40
2018-03-02T03:38:10.579Z,58.00
2018-03-02T03:40:44.231Z,58.30
2018-03-02T03:43:18.835Z,58.80
2018-03-02T03:45:52.920Z,58.40
2018-03-02T03:48:26.820Z,58.40
2018-03-02T03:51:00.537Z,58.60
2018-03-02T03:53:34.336Z,58.50
2018-03-02T03:56:08.058Z,58.40
2018-03-02T03:58:41.812Z,58.40
2018-03-02T04:01:15.618Z,58.70
2018-03-02T04:03:49.559Z,58.70
2018-03-02T04:06:23.797Z,59.10
2018-03-02T04:08:58.380Z,58.70
2018-03-02T04:11:32.171Z,58.70
2018-03-02T04:14:06.515Z,58.80
2018-03-02T04:16:41.591Z,59.50
2018-03-02T04:19:16.140Z,59.10
2018-03-02T04:21:49.952Z,59.30
2018-03-02T04:24:25.293Z,59.70
2018-03-02T04:26:59.107Z,59.50
2018-03-02T04:29:35.072Z,59.40
2018-03-02T04:32:09.672Z,59.40
2018-03-02T04:34:44.425Z,59.90
2018-03-02T04:42:31.158Z,59.50
2018-03-02T04:45:05.824Z,59.60
2018-03-02T04:47:40.259Z,59.50
2018-03-02T04:50:14.476Z,59.80
2018-03-02T04:52:48.911Z,60.30
2018-03-02T04:55:23.164Z,60.00
2018-03-02T04:57:56.807Z,59.80
2018-03-02T05:00:31.481Z,59.90
2018-03-02T05:03:06.515Z,60.40
2018-03-02T05:05:40.548Z,60.00
2018-03-02T05:08:14.235Z,60.10
2018-03-02T05:10:47.940Z,60.00
2018-03-02T05:13:22.267Z,60.10
2018-03-02T05:15:55.874Z,59.90
2018-03-02T05:18:30.039Z,60.00
2018-03-02T05:21:04.104Z,60.20
2018-03-02T05:23:39.104Z,62.20
2018-03-02T05:26:13.302Z,60.00
2018-03-02T05:28:47.394Z,60.20
2018-03-02T05:31:21.447Z,60.20
2018-03-02T05:33:55.383Z,60.50
2018-03-02T05:36:29.853Z,61.00
2018-03-02T05:39:04.578Z,60.60
2018-03-02T05:41:38.736Z,60.40
2018-03-02T05:44:13.038Z,60.10
2018-03-02T05:46:47.968Z,60.20
2018-03-02T05:49:22.249Z,60.30
2018-03-02T05:51:56.488Z,60.00
2018-03-02T05:54:31.536Z,60.00
2018-03-02T05:57:06.139Z,60.30
2018-03-02T05:59:40.063Z,60.50
2018-03-02T06:02:15.016Z,60.40
2018-03-02T06:04:48.687Z,60.70
2018-03-02T06:07:22.497Z,60.60
2018-03-02T06:09:56.212Z,60.80
2018-03-02T06:12:30.712Z,61.60
2018-03-02T06:15:04.938Z,60.90
2018-03-02T06:17:38.644Z,60.80
2018-03-02T06:20:13.014Z,61.60
2018-03-02T06:22:48.054Z,61.20
2018-03-02T06:25:23.292Z,61.50
2018-03-02T06:27:57.316Z,60.90
2018-03-02T06:30:31.803Z,60.60
2018-03-02T06:33:07.790Z,60.80
2018-03-02T06:35:42.500Z,60.90
2018-03-02T06:38:16.774Z,60.80
2018-03-02T06:40:51.431Z,60.70
2018-03-02T06:43:26.427Z,60.40
2018-03-02T06:46:01.768Z,60.90
2018-03-02T06:48:35.459Z,60.20
2018-03-02T06:51:09.137Z,60.00
2018-03-02T06:53:43.577Z,60.00
2018-03-02T06:56:18.428Z,59.30
2018-03-02T06:58:52.833Z,59.10
2018-03-02T07:01:27.295Z,59.00
2018-03-02T07:04:01.487Z,56.70
2018-03-02T07:06:36.002Z,53.80
2018-03-02T07:09:09.691Z,50.90
2018-03-02T07:11:43.425Z,47.60
2018-03-02T07:14:17.010Z,45.60
2018-03-02T07:16:51.618Z,43.40
2018-03-02T07:19:25.755Z,41.80
2018-03-02T07:21:59.848Z,42.30
2018-03-02T07:24:35.191Z,42.80
2018-03-02T07:27:08.967Z,42.70
2018-03-02T07:29:42.759Z,43.50
2018-03-02T07:32:16.990Z,44.80
2018-03-02T07:34:50.657Z,45.70
2018-03-02T07:37:24.975Z,46.60
2018-03-02T07:40:00.112Z,45.30
2018-03-02T07:42:34.488Z,45.90
2018-03-02T07:45:09.599Z,45.00
2018-03-02T07:47:43.895Z,44.90
2018-03-02T07:50:17.829Z,43.70
2018-03-02T07:52:51.702Z,44.00
2018-03-02T07:55:26.268Z,43.50
2018-03-02T07:58:00.251Z,42.30
2018-03-02T08:00:34.010Z,42.80
2018-03-02T08:03:09.248Z,41.10
2018-03-02T08:05:43.158Z,40.00
2018-03-02T08:08:16.834Z,39.20
2018-03-02T08:10:50.981Z,39.20
2018-03-02T08:13:24.956Z,39.90
2018-03-02T08:15:59.611Z,38.70
2018-03-02T08:18:33.512Z,38.10
2018-03-02T08:21:07.964Z,37.90
2018-03-02T08:23:41.863Z,37.60
2018-03-02T08:26:15.563Z,37.40
2018-03-02T08:28:49.224Z,34.00
2018-03-02T08:31:22.881Z,32.40
2018-03-02T08:33:57.470Z,29.80
2018-03-02T08:36:31.518Z,28.10
2018-03-02T08:39:06.100Z,29.20
2018-03-02T08:41:39.947Z,27.30
2018-03-02T08:44:13.689Z,26.70
2018-03-02T08:46:48.206Z,25.30
2018-03-02T08:49:23.328Z,24.70
2018-03-02T08:52:04.190Z,24.70
2018-03-02T08:54:38.812Z,25.10
2018-03-02T08:57:12.950Z,23.80
2018-03-02T08:59:46.615Z,23.80
2018-03-02T09:02:21.017Z,23.90
2018-03-02T09:04:55.161Z,23.80
2018-03-02T09:07:28.845Z,23.00
2018-03-02T09:10:02.767Z,22.90
2018-03-02T09:12:36.494Z,20.80
2018-03-02T09:15:11.816Z,21.20
2018-03-02T09:17:46.403Z,20.80
2018-03-02T09:20:21.109Z,20.50
2018-03-02T09:22:55.759Z,20.60
2018-03-02T09:25:29.664Z,20.20
2018-03-02T09:28:04.353Z,20.70
2018-03-02T09:30:39.390Z,20.40
2018-03-02T09:33:13.784Z,19.80
2018-03-02T09:35:47.580Z,18.60
2018-03-02T09:38:23.085Z,18.80
2018-03-02T09:40:56.831Z,18.20
2018-03-02T09:43:31.308Z,18.70
2018-03-02T09:46:06.020Z,18.50
2018-03-02T09:48:40.091Z,18.20
2018-03-02T09:51:13.813Z,17.00
2018-03-02T09:56:23.257Z,17.70
2018-03-02T09:58:57.705Z,18.20
2018-03-02T10:01:31.838Z,17.90
2018-03-02T10:04:05.867Z,18.20
2018-03-02T10:06:40.975Z,19.90
2018-03-02T10:09:16.016Z,20.40
2018-03-02T10:11:49.663Z,19.90
2018-03-02T10:14:24.533Z,21.00
2018-03-02T10:16:58.983Z,20.70
2018-03-02T10:19:33.295Z,20.90
2018-03-02T10:22:07.723Z,20.90
2018-03-02T10:24:42.938Z,20.50
2018-03-02T10:27:16.426Z,20.90
2018-03-02T10:29:51.403Z,21.00
2018-03-02T10:32:25.739Z,20.60
2018-03-02T10:34:59.636Z,20.10
2018-03-02T10:37:34.542Z,19.30
2018-03-02T10:40:09.499Z,18.60
2018-03-02T10:42:43.593Z,18.20
2018-03-02T10:45:17.632Z,19.60
2018-03-02T10:47:51.827Z,20.10
2018-03-02T10:50:25.506Z,19.30
2018-03-02T10:52:59.307Z,18.80
2018-03-02T10:55:33.057Z,19.50
2018-03-02T10:58:06.746Z,19.70
2018-03-02T11:00:46.307Z,20.00
2018-03-02T11:03:22.783Z,20.20
2018-03-02T11:05:56.775Z,20.50
2018-03-02T11:08:31.090Z,20.70
2018-03-02T11:11:05.181Z,20.60
2018-03-02T11:13:39.042Z,20.30
2018-03-02T11:16:12.792Z,21.10
2018-03-02T11:18:47.994Z,21.90
2018-03-02T11:21:23.371Z,22.30
2018-03-02T11:23:57.008Z,22.10
2018-03-02T11:26:32.188Z,21.90
2018-03-02T11:29:06.749Z,21.30
2018-03-02T11:31:42.601Z,21.40
2018-03-02T11:34:16.816Z,22.10
2018-03-02T11:36:51.287Z,23.20
2018-03-02T11:39:25.690Z,23.30
2018-03-02T11:42:00.525Z,23.10
2018-03-02T11:44:35.114Z,23.00
2018-03-02T11:52:20.863Z,22.70
2018-03-02T11:54:54.796Z,23.10
2018-03-02T11:57:29.492Z,23.00
2018-03-02T12:00:03.764Z,22.90
2018-03-02T12:02:39.146Z,23.70
2018-03-02T12:05:14.224Z,24.20
2018-03-02T12:07:49.845Z,24.70
2018-03-02T12:10:24.640Z,23.40
2018-03-02T12:12:58.790Z,23.50
2018-03-02T12:15:33.106Z,24.20
2018-03-02T12:18:07.099Z,24.10
2018-03-02T12:20:41.365Z,24.40
2018-03-02T12:23:15.056Z,23.80
2018-03-02T12:25:49.602Z,24.10
2018-03-02T12:28:24.030Z,23.80
2018-03-02T12:30:58.426Z,25.00
2018-03-02T12:36:08.197Z,24.60
2018-03-02T12:38:43.679Z,24.60
2018-03-02T12:41:18.055Z,24.50
2018-03-02T12:43:52.376Z,24.90
2018-03-02T12:46:27.577Z,25.10
2018-03-02T12:49:01.975Z,26.50
2018-03-02T12:51:35.772Z,25.60
2018-03-02T12:54:10.331Z,26.00
2018-03-02T12:56:45.205Z,25.80
2018-03-02T12:59:19.510Z,25.90
2018-03-02T13:01:54.555Z,26.30
2018-03-02T13:04:29.357Z,26.10
2018-03-02T13:07:03.962Z,26.40
2018-03-02T13:09:37.689Z,27.10
2018-03-02T13:12:11.374Z,27.10
2018-03-02T13:14:46.685Z,26.70
2018-03-02T13:17:21.539Z,27.20
2018-03-02T13:19:55.577Z,27.20
2018-03-02T13:22:37.580Z,27.30
2018-03-02T13:25:11.824Z,26.90
2018-03-02T13:30:28.449Z,27.10
2018-03-02T13:33:13.726Z,27.90
2018-03-02T13:35:47.983Z,28.40
2018-03-02T13:38:23.092Z,29.00
2018-03-02T13:41:08.777Z,29.20
2018-03-02T13:43:42.763Z,29.30
2018-03-02T13:46:17.977Z,29.70
2018-03-02T13:49:04.556Z,30.10
2018-03-02T13:51:38.853Z,29.90
2018-03-02T13:54:12.300Z,29.30
2018-03-02T13:56:58.689Z,29.70
2018-03-02T13:59:32.676Z,30.00
2018-03-02T14:02:06.689Z,30.10
2018-03-02T14:04:53.177Z,30.10
2018-03-02T14:07:27.740Z,30.00
2018-03-02T14:10:02.426Z,29.70
2018-03-02T14:12:38.009Z,30.10
2018-03-02T14:15:11.707Z,29.90
2018-03-02T14:17:46.635Z,30.40
2018-03-02T14:20:20.996Z,30.30
2018-03-02T14:22:55.587Z,30.70
2018-03-02T14:25:30.092Z,30.80
2018-03-02T14:28:03.769Z,31.10
2018-03-02T14:30:37.434Z,31.30
2018-03-02T14:33:10.975Z,31.00
2018-03-02T14:38:21.014Z,31.20
2018-03-02T14:43:31.175Z,31.60
2018-03-02T14:46:05.414Z,32.30
2018-03-02T14:48:41.085Z,31.90
2018-03-02T14:51:15.820Z,32.40
2018-03-02T14:53:50.809Z,33.50
2018-03-02T14:56:25.155Z,33.70
2018-03-02T14:59:00.072Z,34.30
2018-03-02T15:01:35.195Z,33.80
2018-03-02T15:04:09.039Z,34.30
2018-03-02T15:06:43.327Z,34.50
2018-03-02T15:09:17.278Z,34.50
2018-03-02T15:11:51.364Z,35.40
2018-03-02T15:14:26.423Z,35.50
2018-03-02T15:17:00.211Z,35.10
2018-03-02T15:19:34.619Z,34.90
2018-03-02T15:22:08.908Z,35.10
2018-03-02T15:24:43.796Z,35.80
2018-03-02T15:27:18.975Z,36.90
2018-03-02T15:29:53.430Z,36.00
2018-03-02T15:32:27.845Z,36.60
2018-03-02T15:35:02.322Z,36.80
2018-03-02T15:37:36.051Z,36.80
2018-03-02T15:40:10.200Z,36.80
2018-03-02T15:42:44.852Z,38.30
2018-03-02T15:45:19.598Z,37.40
2018-03-02T15:47:54.521Z,37.70
2018-03-02T15:50:29.611Z,38.50
2018-03-02T15:53:03.700Z,37.70
2018-03-02T15:55:39.213Z,38.50
2018-03-02T15:58:13.676Z,39.00
2018-03-02T16:00:48.307Z,39.10
2018-03-02T16:03:22.817Z,38.40
2018-03-02T16:05:59.114Z,38.30
2018-03-02T16:08:34.407Z,39.00
2018-03-02T16:11:09.451Z,42.30
2018-03-02T16:13:43.124Z,41.80
2018-03-02T16:16:16.726Z,40.40
2018-03-02T16:18:50.686Z,40.20
2018-03-02T16:21:25.415Z,40.20
2018-03-02T16:24:00.636Z,41.30
2018-03-02T16:26:34.449Z,40.60
2018-03-02T16:29:08.060Z,40.90
2018-03-02T16:31:43.214Z,41.20
2018-03-02T16:34:17.749Z,41.30
2018-03-02T16:36:52.034Z,41.60
2018-03-02T16:39:26.706Z,41.70
2018-03-02T16:42:01.129Z,41.80
2018-03-02T16:44:35.387Z,42.10
2018-03-02T16:47:09.431Z,41.90
2018-03-02T16:49:44.634Z,42.60
2018-03-02T16:52:18.466Z,42.20
2018-03-02T16:54:52.932Z,42.30
2018-03-02T16:57:26.743Z,42.40
2018-03-02T17:00:01.075Z,41.80
2018-03-02T17:02:35.568Z,42.40
2018-03-02T17:05:10.091Z,43.20
2018-03-02T17:07:44.308Z,43.10
2018-03-02T17:10:18.532Z,43.00
2018-03-02T17:12:52.888Z,43.40
2018-03-02T17:15:27.468Z,43.10
2018-03-02T17:18:02.719Z,43.40
2018-03-02T17:20:37.328Z,44.20
2018-03-02T17:23:11.046Z,43.60
2018-03-02T17:25:44.774Z,43.80
2018-03-02T17:28:19.599Z,44.20
2018-03-02T17:30:53.683Z,43.90
2018-03-02T17:33:28.057Z,47.90
2018-03-02T17:36:03.058Z,43.70
2018-03-02T17:38:37.507Z,44.10
2018-03-02T17:41:12.215Z,44.10
2018-03-02T17:43:46.050Z,44.20
2018-03-02T17:46:20.506Z,45.10
2018-03-02T17:48:55.250Z,44.60
2018-03-02T17:51:30.202Z,44.70
2018-03-02T17:54:05.486Z,44.50
2018-03-02T17:56:40.566Z,44.80
2018-03-02T17:59:15.168Z,45.10
2018-03-02T18:01:49.231Z,44.90
2018-03-02T18:04:23.079Z,44.90
2018-03-02T18:06:57.710Z,45.30
2018-03-02T18:09:32.606Z,45.20
2018-03-02T18:12:07.011Z,45.60
2018-03-02T18:14:41.163Z,45.40
2018-03-02T18:17:15.889Z,45.30
2018-03-02T18:19:50.647Z,45.10
2018-03-02T18:22:25.575Z,45.00
2018-03-02T18:24:59.982Z,45.30
2018-03-02T18:27:34.387Z,45.30
2018-03-02T18:30:09.166Z,45.40
2018-03-02T18:32:44.167Z,45.80
2018-03-02T18:35:18.620Z,45.70
2018-03-02T18:37:54.266Z,46.50
2018-03-02T18:40:28.046Z,45.70
2018-03-02T18:43:02.916Z,46.00
2018-03-02T18:45:37.475Z,46.30
2018-03-02T18:48:11.101Z,46.20
2018-03-02T18:50:44.728Z,46.50
2018-03-02T18:53:19.215Z,46.60
2018-03-02T18:55:53.131Z,46.30
2018-03-02T18:58:26.837Z,46.40
2018-03-02T19:01:00.508Z,46.40
2018-03-02T19:03:34.972Z,47.20
2018-03-02T19:06:09.364Z,46.70
2018-03-02T19:08:43.845Z,46.70
2018-03-02T19:11:18.701Z,46.50
2018-03-02T19:13:52.274Z,46.60
2018-03-02T19:16:26.498Z,46.70
2018-03-02T19:19:00.837Z,47.00
2018-03-02T19:21:34.566Z,47.30
2018-03-02T19:24:08.928Z,47.70
2018-03-02T19:26:42.624Z,47.30
2018-03-02T19:29:16.439Z,47.20
2018-03-02T19:31:51.207Z,48.00
2018-03-02T19:34:24.916Z,47.50
2018-03-02T19:36:59.676Z,47.40
2018-03-02T19:39:33.616Z,47.60
2018-03-02T19:42:07.322Z,47.80
2018-03-02T19:44:41.563Z,48.10
2018-03-02T19:47:15.957Z,48.00
2018-03-02T19:49:50.296Z,48.20
2018-03-02T19:52:24.726Z,48.20
2018-03-02T19:54:59.917Z,48.60
2018-03-02T19:57:34.998Z,48.60
2018-03-02T20:00:08.992Z,48.20
2018-03-02T20:02:42.900Z,48.30
2018-03-02T20:05:16.608Z,48.50
2018-03-02T20:07:51.099Z,49.20
2018-03-02T20:10:24.969Z,49.00
2018-03-02T20:12:58.693Z,49.10
2018-03-02T20:15:32.430Z,49.00
2018-03-02T20:18:06.478Z,49.00
2018-03-02T20:20:41.620Z,49.10
2018-03-02T20:23:15.347Z,49.20
2018-03-02T20:25:49.940Z,49.30
2018-03-02T20:28:24.259Z,49.10
2018-03-02T20:30:58.896Z,49.40
2018-03-02T20:33:33.303Z,49.60
2018-03-02T20:36:06.972Z,49.40
2018-03-02T20:38:41.185Z,49.40
2018-03-02T20:41:15.465Z,49.40
2018-03-02T20:43:49.188Z,49.70
2018-03-02T20:46:23.630Z,49.80
2018-03-02T20:48:57.719Z,50.00
2018-03-02T20:51:32.012Z,50.60
2018-03-02T20:54:05.965Z,50.20
2018-03-02T20:56:39.734Z,50.50
2018-03-02T20:59:13.469Z,50.50
2018-03-02T21:01:47.050Z,50.50
2018-03-02T21:04:21.117Z,50.60
2018-03-02T21:06:55.404Z,50.90
2018-03-02T21:09:29.032Z,50.90
2018-03-02T21:12:03.480Z,51.40
2018-03-02T21:14:37.351Z,50.90
2018-03-02T21:17:11.075Z,50.80
2018-03-02T21:22:22.157Z,51.10
2018-03-02T21:24:55.813Z,51.40
2018-03-02T21:27:31.502Z,51.30
2018-03-02T21:32:42.230Z,51.70
2018-03-02T21:35:15.899Z,51.80
2018-03-02T21:37:49.514Z,51.80
2018-03-02T21:40:23.305Z,52.00
2018-03-02T21:42:58.536Z,52.10
2018-03-02T21:45:33.655Z,52.10
2018-03-02T21:48:08.194Z,52.20
2018-03-02T21:50:47.772Z,52.10
2018-03-02T21:53:21.479Z,52.10
2018-03-02T21:55:57.809Z,52.30
2018-03-02T21:58:31.849Z,52.40
2018-03-02T22:01:05.580Z,52.40
2018-03-02T22:03:40.291Z,53.30
2018-03-02T22:06:15.085Z,52.80
2018-03-02T22:08:50.705Z,52.80
2018-03-02T22:11:24.586Z,52.80
2018-03-02T22:13:58.645Z,52.90
2018-03-02T22:16:36.141Z,52.80
2018-03-02T22:19:10.476Z,53.00
2018-03-02T22:21:44.211Z,53.20
2018-03-02T22:24:18.040Z,53.20
2018-03-02T22:26:51.769Z,53.20
2018-03-02T22:29:25.672Z,53.40
2018-03-02T22:32:01.203Z,53.10
2018-03-02T22:37:10.675Z,53.10
2018-03-02T22:39:44.348Z,53.10
2018-03-02T22:42:18.316Z,53.30
2018-03-02T22:44:52.364Z,53.30
2018-03-02T22:47:25.948Z,53.50
2018-03-02T22:49:59.727Z,53.60
2018-03-02T22:52:33.536Z,53.70
2018-03-02T22:55:07.264Z,53.70
2018-03-02T22:57:41.755Z,54.10
2018-03-02T23:00:15.611Z,53.70
2018-03-02T23:02:49.311Z,54.00
2018-03-02T23:05:23.111Z,54.00
2018-03-02T23:07:57.803Z,54.20
2018-03-02T23:10:32.679Z,54.00
2018-03-02T23:13:07.140Z,54.00
2018-03-02T23:15:41.656Z,53.90
2018-03-02T23:18:15.550Z,54.00
2018-03-02T23:20:49.323Z,54.10
2018-03-02T23:23:23.111Z,54.20
2018-03-02T23:25:56.853Z,54.00
2018-03-02T23:28:31.524Z,54.50
2018-03-02T23:31:06.309Z,53.90
2018-03-02T23:33:40.961Z,54.50
2018-03-02T23:36:15.142Z,54.20
2018-03-02T23:38:49.708Z,54.80
2018-03-02T23:41:23.749Z,54.30
2018-03-02T23:43:57.778Z,54.30
2018-03-02T23:46:32.129Z,54.00
2018-03-02T23:49:07.068Z,54.20
2018-03-02T23:51:40.823Z,54.20
2018-03-02T23:54:15.335Z,55.00
2018-03-02T23:56:49.416Z,54.40
2018-03-02T23:59:23.770Z,55.00
